Time;durP1;ratioP1;P1;durP2;ratioP2;P2;SDS_P1;SDS_P2;PMS_P1;PMS_P2;Temp;Humidity;BMP_temperature;BMP_pressure;BME280_temperature;BME280_humidity;BME280_pressure;Samples;Min_cycle;Max_cycle;Signal;HPM_P1;HPM_P2
2023/10/02 00:01:19;;;;;;;16.55;9.27;;;;;;;;;;5025177;28;20511;-68
2023/10/02 00:03:48;;;;;;;20.63;10.68;;;;;;;;;;5025635;28;21010;-68
2023/10/02 00:06:17;;;;;;;19.13;9.20;;;;;;;;;;5025521;28;20484;-68
2023/10/02 00:08:49;;;;;;;18.45;9.48;;;;;;;;;;5025214;28;20060;-69
2023/10/02 00:11:35;;;;;;;20.88;9.68;;;;;;;;;;5024530;28;20058;-68
2023/10/02 00:14:21;;;;;;;17.75;9.32;;;;;;;;;;5025815;28;20212;-68
2023/10/02 00:17:03;;;;;;;16.92;9.45;;;;;;;;;;5023548;28;20575;-68
2023/10/02 00:19:35;;;;;;;16.63;9.23;;;;;;;;;;5007729;28;20054;-68
2023/10/02 00:22:05;;;;;;;17.38;10.10;;;;;;;;;;5024633;28;20054;-68
2023/10/02 00:24:37;;;;;;;19.75;10.70;;;;;;;;;;5025094;28;20104;-69
2023/10/02 00:27:05;;;;;;;15.27;9.45;;;;;;;;;;5025506;28;20096;-68
2023/10/02 00:29:32;;;;;;;16.85;9.88;;;;;;;;;;5025319;28;20057;-68
2023/10/02 00:31:59;;;;;;;17.38;9.48;;;;;;;;;;5025080;28;20054;-68
2023/10/02 00:34:32;;;;;;;19.42;10.10;;;;;;;;;;5024713;28;20118;-68
2023/10/02 00:37:00;;;;;;;16.30;9.40;;;;;;;;;;5024998;28;20057;-68
2023/10/02 00:39:32;;;;;;;19.50;10.23;;;;;;;;;;5023530;28;20050;-68
2023/10/02 00:45:04;;;;;;;20.70;9.52;;;;;;;;;;5021897;28;20096;-68
2023/10/02 00:47:38;;;;;;;17.88;8.82;;;;;;;;;;5001334;28;20157;-68
2023/10/02 00:50:16;;;;;;;20.80;10.65;;;;;;;;;;5002676;28;20057;-68
2023/10/02 00:52:49;;;;;;;17.88;9.23;;;;;;;;;;5002697;28;20093;-69
2023/10/02 00:55:17;;;;;;;18.52;9.25;;;;;;;;;;5002627;28;20524;-68
2023/10/02 00:57:45;;;;;;;23.10;9.50;;;;;;;;;;5003821;28;20054;-68
2023/10/02 01:03:09;;;;;;;15.52;10.40;;;;;;;;;;4983943;28;20117;-68
2023/10/02 01:05:50;;;;;;;18.13;10.15;;;;;;;;;;5003126;28;20054;-68
2023/10/02 01:08:24;;;;;;;16.73;9.32;;;;;;;;;;5022663;28;20058;-68
2023/10/02 01:11:03;;;;;;;20.50;10.10;;;;;;;;;;5021961;28;20050;-68
2023/10/02 01:13:30;;;;;;;13.90;9.10;;;;;;;;;;5021695;28;20087;-68
2023/10/02 01:15:59;;;;;;;18.25;9.68;;;;;;;;;;5023454;28;20451;-68
2023/10/02 01:18:29;;;;;;;17.42;9.32;;;;;;;;;;5024208;28;20528;-68
2023/10/02 01:21:01;;;;;;;20.00;9.18;;;;;;;;;;5020994;28;20615;-68
2023/10/02 01:23:30;;;;;;;20.55;10.48;;;;;;;;;;5004717;28;20050;-69
2023/10/02 01:25:57;;;;;;;18.52;9.30;;;;;;;;;;5006277;28;20054;-68
2023/10/02 01:28:25;;;;;;;19.25;9.57;;;;;;;;;;5004666;28;20097;-68
2023/10/02 01:30:55;;;;;;;16.65;9.20;;;;;;;;;;4986845;28;20050;-68
2023/10/02 01:33:22;;;;;;;17.40;9.65;;;;;;;;;;5004405;28;20549;-68
2023/10/02 01:35:49;;;;;;;16.23;9.38;;;;;;;;;;5007928;28;20436;-69
2023/10/02 01:38:29;;;;;;;15.77;8.95;;;;;;;;;;5014964;28;20162;-68
2023/10/02 01:41:03;;;;;;;17.80;9.27;;;;;;;;;;5024420;28;20049;-68
2023/10/02 01:43:32;;;;;;;17.88;9.73;;;;;;;;;;5023682;28;20133;-69
2023/10/02 01:46:00;;;;;;;19.90;9.70;;;;;;;;;;5024088;28;20054;-68
2023/10/02 01:48:36;;;;;;;16.45;9.38;;;;;;;;;;5022573;28;20141;-69
2023/10/02 01:51:41;;;;;;;18.05;9.25;;;;;;;;;;5024482;28;20078;-68
2023/10/02 01:54:03;;;;;;;18.08;9.80;;;;;;;;;;5020690;28;20496;-68
2023/10/02 01:56:31;;;;;;;17.80;9.40;;;;;;;;;;5023669;28;20054;-69
2023/10/02 01:59:14;;;;;;;17.73;9.80;;;;;;;;;;5023719;28;20489;-68
2023/10/02 02:01:54;;;;;;;18.17;9.80;;;;;;;;;;5023837;28;20141;-69
2023/10/02 02:04:22;;;;;;;16.15;8.82;;;;;;;;;;5023572;28;20133;-68
2023/10/02 02:06:57;;;;;;;19.73;9.73;;;;;;;;;;5022762;28;20053;-69
2023/10/02 02:09:37;;;;;;;16.88;9.95;;;;;;;;;;5024225;28;20089;-68
2023/10/02 02:12:05;;;;;;;17.08;9.68;;;;;;;;;;5023819;28;20054;-69
2023/10/02 02:14:33;;;;;;;19.42;9.77;;;;;;;;;;5023772;28;20064;-68
2023/10/02 02:17:01;;;;;;;21.17;11.00;;;;;;;;;;5023787;28;20053;-69
2023/10/02 02:19:28;;;;;;;20.77;9.50;;;;;;;;;;5023093;28;20145;-68
2023/10/02 02:21:56;;;;;;;16.90;9.65;;;;;;;;;;5023628;28;20054;-68
2023/10/02 02:24:23;;;;;;;18.70;10.18;;;;;;;;;;5023123;28;20179;-68
2023/10/02 02:26:57;;;;;;;16.77;9.30;;;;;;;;;;5023371;28;20069;-68
2023/10/02 02:29:26;;;;;;;14.82;8.68;;;;;;;;;;5023752;28;20104;-68
2023/10/02 02:31:56;;;;;;;17.98;10.15;;;;;;;;;;5023424;28;20140;-68
2023/10/02 02:34:23;;;;;;;18.10;10.50;;;;;;;;;;5024069;28;20082;-69
2023/10/02 02:36:50;;;;;;;19.30;10.07;;;;;;;;;;5026956;28;20172;-69
2023/10/02 02:39:18;;;;;;;16.42;9.90;;;;;;;;;;5026540;28;20116;-69
2023/10/02 02:42:08;;;;;;;19.55;10.48;;;;;;;;;;5026158;28;20065;-69
2023/10/02 02:44:39;;;;;;;18.48;9.05;;;;;;;;;;5027216;28;20847;-69
2023/10/02 02:47:08;;;;;;;14.75;9.25;;;;;;;;;;5025771;28;20057;-69
2023/10/02 02:49:48;;;;;;;16.67;9.80;;;;;;;;;;5026512;28;20054;-69
2023/10/02 02:52:17;;;;;;;16.35;9.07;;;;;;;;;;5026655;28;20141;-69
2023/10/02 02:54:47;;;;;;;19.92;9.98;;;;;;;;;;5026255;28;20452;-68
2023/10/02 02:57:14;;;;;;;17.17;9.07;;;;;;;;;;5026749;28;20057;-69
2023/10/02 02:59:41;;;;;;;18.90;9.63;;;;;;;;;;5025421;28;20262;-69
2023/10/02 03:02:20;;;;;;;19.92;10.45;;;;;;;;;;5025674;28;20062;-69
2023/10/02 03:04:47;;;;;;;15.07;8.68;;;;;;;;;;5027287;28;20060;-69
2023/10/02 03:07:29;;;;;;;15.60;8.90;;;;;;;;;;5027581;28;20054;-69
2023/10/02 03:09:58;;;;;;;19.58;9.70;;;;;;;;;;5027894;28;20475;-69
2023/10/02 03:12:25;;;;;;;17.17;9.35;;;;;;;;;;5028615;28;20061;-69
2023/10/02 03:14:54;;;;;;;21.27;11.10;;;;;;;;;;5027473;28;20416;-69
2023/10/02 03:17:28;;;;;;;18.73;9.57;;;;;;;;;;5026545;28;20064;-69
2023/10/02 03:19:57;;;;;;;16.20;8.83;;;;;;;;;;5024513;28;20142;-69
2023/10/02 03:22:27;;;;;;;15.35;9.18;;;;;;;;;;5007694;28;20297;-69
2023/10/02 03:25:24;;;;;;;20.45;11.07;;;;;;;;;;5006352;28;20059;-69
2023/10/02 03:27:44;;;;;;;22.50;10.02;;;;;;;;;;5025097;28;20339;-69
2023/10/02 03:30:35;;;;;;;18.77;10.00;;;;;;;;;;5026973;28;20057;-69
2023/10/02 03:32:57;;;;;;;22.08;10.93;;;;;;;;;;5026057;28;20186;-69
2023/10/02 03:35:23;;;;;;;17.90;10.20;;;;;;;;;;5026705;28;20587;-69
2023/10/02 03:37:51;;;;;;;19.17;9.95;;;;;;;;;;5026178;28;20173;-70
2023/10/02 03:40:20;;;;;;;20.60;10.35;;;;;;;;;;5026441;28;20054;-69
2023/10/02 03:42:47;;;;;;;18.90;9.73;;;;;;;;;;5025993;28;20631;-69
2023/10/02 03:45:14;;;;;;;18.35;10.30;;;;;;;;;;5025573;28;20085;-69
2023/10/02 03:47:41;;;;;;;20.60;10.68;;;;;;;;;;5024369;28;20112;-69
2023/10/02 03:50:12;;;;;;;20.17;9.68;;;;;;;;;;5026093;28;20046;-69
2023/10/02 03:52:41;;;;;;;16.73;10.27;;;;;;;;;;5025387;28;20132;-69
2023/10/02 03:55:20;;;;;;;17.33;9.10;;;;;;;;;;5025193;28;20065;-69
2023/10/02 03:57:50;;;;;;;18.50;9.98;;;;;;;;;;5025273;28;20054;-69
2023/10/02 04:02:47;;;;;;;21.80;10.60;;;;;;;;;;5025487;28;20108;-68
2023/10/02 04:05:30;;;;;;;22.55;10.65;;;;;;;;;;5026151;28;20085;-69
2023/10/02 04:08:12;;;;;;;17.27;10.40;;;;;;;;;;5024327;28;20054;-68
2023/10/02 04:10:51;;;;;;;18.65;10.25;;;;;;;;;;5025188;28;20153;-69
2023/10/02 04:13:23;;;;;;;20.90;11.07;;;;;;;;;;5008047;28;20065;-69
2023/10/02 04:15:53;;;;;;;20.73;10.68;;;;;;;;;;5024701;28;20058;-69
2023/10/02 04:18:45;;;;;;;17.55;10.10;;;;;;;;;;5025363;28;20049;-69
2023/10/02 04:21:12;;;;;;;23.63;10.45;;;;;;;;;;5025233;28;20135;-69
2023/10/02 04:23:47;;;;;;;17.77;9.73;;;;;;;;;;5019979;28;20054;-69
2023/10/02 04:26:19;;;;;;;19.80;9.85;;;;;;;;;;5025687;28;20076;-69
2023/10/02 04:28:54;;;;;;;19.23;10.32;;;;;;;;;;5025660;28;20433;-69
2023/10/02 04:31:22;;;;;;;18.23;10.30;;;;;;;;;;5024876;28;20548;-69
2023/10/02 04:34:14;;;;;;;18.88;10.43;;;;;;;;;;5025384;28;20056;-69
2023/10/02 04:36:41;;;;;;;19.63;11.23;;;;;;;;;;5024789;28;20089;-69
2023/10/02 04:42:12;;;;;;;18.80;9.80;;;;;;;;;;5004212;28;20414;-68
2023/10/02 04:44:46;;;;;;;17.80;10.00;;;;;;;;;;5004021;28;20115;-69
2023/10/02 04:47:19;;;;;;;17.55;9.85;;;;;;;;;;5004135;28;20050;-69
2023/10/02 04:55:24;;;;;;;19.30;10.48;;;;;;;;;;5025225;28;20587;-69
2023/10/02 04:57:54;;;;;;;22.00;11.50;;;;;;;;;;5024315;28;20509;-69
2023/10/02 05:00:32;;;;;;;21.27;11.00;;;;;;;;;;5007338;28;20479;-68
2023/10/02 05:05:48;;;;;;;19.80;11.05;;;;;;;;;;5024084;28;20050;-69
2023/10/02 05:08:19;;;;;;;24.10;11.20;;;;;;;;;;5025141;28;20061;-68
2023/10/02 05:13:53;;;;;;;21.45;10.77;;;;;;;;;;5024713;28;20085;-68
2023/10/02 05:16:27;;;;;;;21.83;10.73;;;;;;;;;;5024392;28;20064;-69
2023/10/02 05:18:54;;;;;;;20.48;10.75;;;;;;;;;;5024860;28;20417;-69
2023/10/02 05:21:35;;;;;;;21.48;10.40;;;;;;;;;;5024717;28;20053;-68
2023/10/02 05:24:07;;;;;;;18.67;10.18;;;;;;;;;;5020336;28;20058;-69
2023/10/02 05:26:36;;;;;;;22.30;10.68;;;;;;;;;;5023866;28;20095;-69
2023/10/02 05:29:05;;;;;;;17.52;9.93;;;;;;;;;;5024074;28;20061;-68
2023/10/02 05:31:36;;;;;;;21.10;10.82;;;;;;;;;;5023944;28;20046;-69
2023/10/02 05:34:13;;;;;;;20.55;10.68;;;;;;;;;;5022891;28;20049;-67
2023/10/02 05:39:28;;;;;;;18.40;10.00;;;;;;;;;;5023562;28;20555;-66
2023/10/02 05:42:05;;;;;;;21.27;10.32;;;;;;;;;;5023503;28;20053;-69
2023/10/02 05:44:33;;;;;;;18.75;10.57;;;;;;;;;;5023201;28;20125;-68
2023/10/02 05:47:07;;;;;;;17.92;10.13;;;;;;;;;;5023028;28;20492;-68
2023/10/02 05:49:47;;;;;;;18.20;10.23;;;;;;;;;;5023403;28;20120;-68
2023/10/02 05:52:14;;;;;;;19.35;11.30;;;;;;;;;;5023189;28;20049;-67
2023/10/02 05:54:47;;;;;;;16.20;10.27;;;;;;;;;;5023156;28;20058;-67
2023/10/02 05:57:14;;;;;;;18.27;10.60;;;;;;;;;;5023999;28;20499;-68
2023/10/02 05:59:45;;;;;;;22.10;11.50;;;;;;;;;;5022889;28;20433;-68
2023/10/02 06:02:17;;;;;;;22.88;11.18;;;;;;;;;;5022146;28;20479;-67
2023/10/02 06:04:48;;;;;;;21.95;10.43;;;;;;;;;;5022929;28;20050;-67
2023/10/02 06:10:07;;;;;;;20.27;11.70;;;;;;;;;;5025087;28;20080;-68
2023/10/02 06:12:33;;;;;;;24.90;11.45;;;;;;;;;;5026437;28;20104;-67
2023/10/02 06:15:09;;;;;;;24.27;12.20;;;;;;;;;;5027038;28;20241;-67
2023/10/02 06:17:36;;;;;;;26.17;11.63;;;;;;;;;;5026623;28;20448;-68
2023/10/02 06:20:17;;;;;;;25.88;11.35;;;;;;;;;;5026122;28;20512;-69
2023/10/02 06:22:47;;;;;;;20.60;12.18;;;;;;;;;;5026187;28;20501;-68
2023/10/02 06:25:18;;;;;;;21.60;11.20;;;;;;;;;;5027357;28;20387;-68
2023/10/02 06:27:47;;;;;;;23.83;11.85;;;;;;;;;;5026401;28;20062;-69
2023/10/02 06:30:16;;;;;;;24.08;11.80;;;;;;;;;;5009016;28;20061;-70
2023/10/02 06:32:55;;;;;;;23.05;11.00;;;;;;;;;;5024435;28;20050;-69
2023/10/02 06:35:22;;;;;;;21.45;10.88;;;;;;;;;;5006159;28;20868;-68
2023/10/02 06:37:49;;;;;;;21.33;10.25;;;;;;;;;;5011140;28;20062;-69
2023/10/02 06:40:16;;;;;;;21.92;10.93;;;;;;;;;;5026458;28;20539;-69
2023/10/02 06:42:49;;;;;;;26.40;11.65;;;;;;;;;;5008743;28;20054;-68
2023/10/02 06:45:18;;;;;;;21.85;11.13;;;;;;;;;;5025804;28;20054;-68
2023/10/02 06:47:44;;;;;;;20.45;10.85;;;;;;;;;;5024946;28;20401;-68
2023/10/02 06:50:31;;;;;;;22.65;12.18;;;;;;;;;;5026244;28;20576;-68
2023/10/02 06:52:58;;;;;;;25.55;11.32;;;;;;;;;;5026680;28;20058;-68
2023/10/02 06:55:26;;;;;;;23.00;11.02;;;;;;;;;;5026141;28;20081;-68
2023/10/02 06:57:53;;;;;;;22.17;11.82;;;;;;;;;;5025723;28;20104;-67
2023/10/02 07:00:21;;;;;;;22.60;12.02;;;;;;;;;;5024910;28;20065;-67
2023/10/02 07:02:56;;;;;;;23.33;11.15;;;;;;;;;;5025448;28;20053;-68
2023/10/02 07:05:33;;;;;;;23.00;12.15;;;;;;;;;;5026005;28;20143;-67
2023/10/02 07:08:17;;;;;;;28.30;11.55;;;;;;;;;;5025007;28;20050;-67
2023/10/02 07:10:44;;;;;;;23.70;10.90;;;;;;;;;;5025709;28;20501;-67
2023/10/02 07:13:20;;;;;;;22.65;10.88;;;;;;;;;;5026129;28;20275;-67
2023/10/02 07:15:55;;;;;;;25.08;12.13;;;;;;;;;;5027534;28;20046;-67
2023/10/02 07:18:35;;;;;;;25.98;12.23;;;;;;;;;;5028058;28;20057;-68
2023/10/02 07:21:07;;;;;;;25.05;12.57;;;;;;;;;;5026465;28;20050;-68
2023/10/02 07:23:37;;;;;;;21.00;12.30;;;;;;;;;;5026229;28;20379;-69
2023/10/02 07:26:05;;;;;;;22.83;11.68;;;;;;;;;;5026431;28;20132;-68
2023/10/02 07:28:32;;;;;;;22.60;11.60;;;;;;;;;;5025575;28;20137;-68
2023/10/02 07:30:59;;;;;;;21.58;12.65;;;;;;;;;;5025821;28;20054;-68
2023/10/02 07:33:26;;;;;;;24.27;12.45;;;;;;;;;;5025509;28;20056;-68
2023/10/02 07:35:53;;;;;;;23.35;11.98;;;;;;;;;;5025206;28;20054;-68
2023/10/02 07:38:21;;;;;;;19.48;10.82;;;;;;;;;;5026070;28;20061;-69
2023/10/02 07:40:48;;;;;;;23.92;12.35;;;;;;;;;;5025106;28;20054;-69
2023/10/02 07:43:19;;;;;;;22.30;11.82;;;;;;;;;;5025512;28;20058;-69
2023/10/02 07:46:01;;;;;;;23.95;11.98;;;;;;;;;;5025279;28;20060;-68
2023/10/02 07:48:33;;;;;;;20.42;11.40;;;;;;;;;;5025071;28;20050;-68
2023/10/02 07:51:00;;;;;;;23.60;11.15;;;;;;;;;;5025740;28;20050;-67
2023/10/02 07:53:40;;;;;;;22.50;12.65;;;;;;;;;;5023514;28;20057;-70
2023/10/02 07:56:11;;;;;;;22.85;12.45;;;;;;;;;;5025623;28;20053;-70
2023/10/02 07:58:39;;;;;;;20.80;11.20;;;;;;;;;;5025398;28;20054;-70
2023/10/02 08:01:11;;;;;;;20.30;10.65;;;;;;;;;;5025130;28;20436;-70
2023/10/02 08:03:49;;;;;;;23.77;11.95;;;;;;;;;;5025254;28;20049;-69
2023/10/02 08:06:33;;;;;;;22.70;12.18;;;;;;;;;;5025176;28;20050;-69
2023/10/02 08:11:53;;;;;;;22.33;11.88;;;;;;;;;;5025225;28;20499;-69
2023/10/02 08:14:42;;;;;;;23.00;12.43;;;;;;;;;;5024996;28;20127;-68
2023/10/02 08:17:21;;;;;;;20.83;11.38;;;;;;;;;;5024886;28;20536;-68
2023/10/02 08:19:56;;;;;;;21.73;12.57;;;;;;;;;;5024041;28;20057;-68
2023/10/02 08:22:24;;;;;;;23.33;11.67;;;;;;;;;;5025078;28;20403;-68
2023/10/02 08:24:52;;;;;;;23.00;11.73;;;;;;;;;;5025337;28;20046;-68
2023/10/02 08:27:19;;;;;;;21.67;12.23;;;;;;;;;;5024839;28;20144;-67
2023/10/02 08:29:45;;;;;;;25.20;13.05;;;;;;;;;;5024108;28;20054;-67
2023/10/02 08:32:12;;;;;;;23.73;12.13;;;;;;;;;;5024444;28;20137;-68
2023/10/02 08:34:38;;;;;;;21.88;12.35;;;;;;;;;;5025039;28;20050;-68
2023/10/02 08:37:05;;;;;;;26.15;13.32;;;;;;;;;;5026498;28;20141;-68
2023/10/02 08:39:33;;;;;;;21.25;12.05;;;;;;;;;;5025929;28;20081;-68
2023/10/02 08:42:08;;;;;;;22.48;12.80;;;;;;;;;;5025025;28;20061;-66
2023/10/02 08:44:43;;;;;;;20.13;12.07;;;;;;;;;;5024377;28;20046;-68
2023/10/02 08:47:24;;;;;;;23.00;12.85;;;;;;;;;;5005627;28;20066;-68
2023/10/02 08:50:03;;;;;;;25.95;12.77;;;;;;;;;;5019498;28;20050;-67
2023/10/02 08:52:38;;;;;;;22.15;12.55;;;;;;;;;;5024119;28;20053;-68
2023/10/02 08:55:26;;;;;;;;;;;;;;;;;;5024909;28;20069;-69
2023/10/02 08:57:51;;;;;;;24.25;12.32;;;;;;;;;;5023662;28;46426;-69
2023/10/02 09:00:38;;;;;;;22.85;12.38;;;;;;;;;;5024609;28;20398;-69
2023/10/02 09:03:13;;;;;;;21.80;12.18;;;;;;;;;;5024807;28;20543;-69
2023/10/02 09:05:49;;;;;;;24.73;13.63;;;;;;;;;;5024568;28;20596;-69
2023/10/02 09:08:16;;;;;;;28.35;13.50;;;;;;;;;;5025632;28;20072;-69
2023/10/02 09:10:58;;;;;;;26.65;14.75;;;;;;;;;;5024143;28;20053;-67
2023/10/02 09:13:25;;;;;;;28.50;13.68;;;;;;;;;;5004998;28;20517;-68
2023/10/02 09:15:53;;;;;;;28.10;14.63;;;;;;;;;;5024419;28;20069;-68
2023/10/02 09:18:34;;;;;;;27.77;15.13;;;;;;;;;;5023959;28;20544;-68
2023/10/02 09:21:14;;;;;;;25.88;13.68;;;;;;;;;;5024122;28;20061;-68
2023/10/02 09:23:49;;;;;;;28.83;15.10;;;;;;;;;;5023781;28;20050;-69
2023/10/02 09:26:16;;;;;;;29.08;14.65;;;;;;;;;;5006744;28;20144;-68
2023/10/02 09:28:58;;;;;;;31.63;14.95;;;;;;;;;;5023435;28;20060;-68
2023/10/02 09:31:30;;;;;;;27.42;13.82;;;;;;;;;;5023840;28;20149;-68
2023/10/02 09:34:04;;;;;;;32.58;15.23;;;;;;;;;;5022672;28;20057;-69
2023/10/02 09:36:54;;;;;;;24.30;13.32;;;;;;;;;;5022798;28;20050;-70
2023/10/02 09:39:41;;;;;;;26.30;13.70;;;;;;;;;;4999363;28;20078;-70
2023/10/02 09:42:09;;;;;;;22.88;13.48;;;;;;;;;;5021990;28;20939;-69
2023/10/02 09:44:45;;;;;;;25.45;13.98;;;;;;;;;;5022520;28;20225;-70
2023/10/02 09:47:13;;;;;;;24.60;13.32;;;;;;;;;;5023003;28;20053;-68
2023/10/02 09:49:48;;;;;;;24.52;14.38;;;;;;;;;;5022730;28;20082;-68
2023/10/02 09:52:16;;;;;;;24.60;14.27;;;;;;;;;;5023906;28;20061;-68
2023/10/02 09:55:03;;;;;;;23.23;13.10;;;;;;;;;;5023540;28;20046;-67
2023/10/02 09:57:54;;;;;;;23.83;13.10;;;;;;;;;;5021139;28;20061;-68
2023/10/02 10:00:36;;;;;;;21.40;11.63;;;;;;;;;;5022835;28;20595;-68
2023/10/02 10:03:24;;;;;;;25.42;12.60;;;;;;;;;;5022725;28;20136;-68
2023/10/02 10:06:17;;;;;;;22.67;11.77;;;;;;;;;;5005430;28;20140;-69
2023/10/02 10:11:44;;;;;;;23.75;10.23;;;;;;;;;;5002300;28;20093;-67
2023/10/02 10:14:42;;;;;;;29.83;11.70;;;;;;;;;;5002434;28;20135;-67
2023/10/02 10:17:17;;;;;;;17.88;10.55;;;;;;;;;;5017439;28;20571;-67
2023/10/02 10:20:08;;;;;;;19.52;10.82;;;;;;;;;;5022358;28;20085;-67
2023/10/02 10:22:36;;;;;;;24.02;11.18;;;;;;;;;;5022080;28;20546;-67
2023/10/02 10:27:54;;;;;;;17.25;10.02;;;;;;;;;;5021418;28;20065;-67
2023/10/02 10:33:16;;;;;;;22.25;11.38;;;;;;;;;;4994655;28;20058;-68
2023/10/02 10:35:55;;;;;;;20.15;10.55;;;;;;;;;;5018192;28;20065;-67
2023/10/02 10:38:23;;;;;;;17.40;10.35;;;;;;;;;;5023008;28;20066;-67
2023/10/02 10:41:00;;;;;;;17.35;9.73;;;;;;;;;;5006847;28;20051;-67
2023/10/02 10:43:43;;;;;;;17.50;9.50;;;;;;;;;;5019185;28;20513;-67
2023/10/02 10:46:14;;;;;;;19.05;9.57;;;;;;;;;;5022947;28;20138;-68
2023/10/02 10:48:41;;;;;;;19.13;9.48;;;;;;;;;;5021838;28;20560;-67
2023/10/02 10:51:20;;;;;;;19.35;10.38;;;;;;;;;;5021878;28;20061;-67
2023/10/02 10:53:47;;;;;;;20.40;10.18;;;;;;;;;;5021194;28;20100;-68
2023/10/02 10:56:17;;;;;;;19.45;8.73;;;;;;;;;;5024387;28;20069;-67
2023/10/02 10:58:47;;;;;;;17.38;9.10;;;;;;;;;;5026610;28;20049;-67
2023/10/02 11:01:17;;;;;;;16.25;9.60;;;;;;;;;;5026630;28;20196;-67
2023/10/02 11:03:44;;;;;;;15.48;8.75;;;;;;;;;;5026835;28;20541;-66
2023/10/02 11:06:11;;;;;;;17.20;9.52;;;;;;;;;;5025752;28;20054;-66
2023/10/02 11:08:38;;;;;;;17.25;9.02;;;;;;;;;;5025106;28;20057;-66
2023/10/02 11:11:06;;;;;;;18.67;9.40;;;;;;;;;;5025814;28;20500;-66
2023/10/02 11:13:50;;;;;;;15.80;9.70;;;;;;;;;;5025730;28;20065;-67
2023/10/02 11:16:21;;;;;;;18.08;8.27;;;;;;;;;;5025797;28;20057;-67
2023/10/02 11:19:10;;;;;;;17.38;9.05;;;;;;;;;;5025792;28;20057;-67
2023/10/02 11:21:45;;;;;;;15.18;7.38;;;;;;;;;;5025506;28;20074;-67
2023/10/02 11:24:21;;;;;;;15.27;8.05;;;;;;;;;;5025482;28;20093;-69
2023/10/02 11:26:48;;;;;;;13.70;7.75;;;;;;;;;;5020036;28;20050;-68
2023/10/02 11:29:20;;;;;;;13.48;7.13;;;;;;;;;;5025067;28;20105;-69
2023/10/02 11:34:49;;;;;;;11.73;7.13;;;;;;;;;;5026052;28;20065;-67
2023/10/02 11:37:16;;;;;;;12.02;6.63;;;;;;;;;;5024867;28;20054;-68
2023/10/02 11:39:43;;;;;;;15.57;7.65;;;;;;;;;;5024875;28;20484;-69
2023/10/02 11:42:10;;;;;;;12.20;6.63;;;;;;;;;;5025724;28;20137;-69
2023/10/02 11:44:39;;;;;;;12.05;6.32;;;;;;;;;;5024968;28;20050;-68
2023/10/02 11:47:10;;;;;;;14.35;7.30;;;;;;;;;;5025408;28;20488;-67
2023/10/02 11:49:37;;;;;;;12.80;7.25;;;;;;;;;;5025281;28;20061;-67
2023/10/02 11:52:04;;;;;;;13.38;6.65;;;;;;;;;;5024918;28;20591;-67
2023/10/02 11:54:36;;;;;;;11.80;6.95;;;;;;;;;;5024953;28;20085;-67
2023/10/02 11:57:08;;;;;;;14.55;7.82;;;;;;;;;;5025123;28;20061;-66
2023/10/02 11:59:35;;;;;;;18.20;8.20;;;;;;;;;;5024962;28;20062;-66
2023/10/02 12:02:03;;;;;;;13.63;7.47;;;;;;;;;;5025118;28;20224;-67
2023/10/02 12:04:30;;;;;;;17.55;8.38;;;;;;;;;;5024550;28;20088;-66
2023/10/02 12:06:57;;;;;;;16.42;8.18;;;;;;;;;;5023341;28;20058;-67
2023/10/02 12:09:24;;;;;;;14.95;7.50;;;;;;;;;;5024913;28;20108;-67
2023/10/02 12:11:51;;;;;;;13.43;7.93;;;;;;;;;;5025704;28;20054;-69
2023/10/02 12:14:17;;;;;;;16.10;8.40;;;;;;;;;;5023545;28;20093;-69
2023/10/02 12:16:45;;;;;;;14.75;8.18;;;;;;;;;;5024994;28;20064;-68
2023/10/02 12:19:15;;;;;;;11.93;7.45;;;;;;;;;;5024319;28;20056;-68
2023/10/02 12:21:41;;;;;;;16.05;8.05;;;;;;;;;;5024120;28;20057;-68
2023/10/02 12:24:25;;;;;;;14.50;7.55;;;;;;;;;;5023938;28;20852;-69
2023/10/02 12:26:52;;;;;;;17.45;8.00;;;;;;;;;;5022034;28;20173;-68
2023/10/02 12:29:19;;;;;;;12.23;7.65;;;;;;;;;;5022820;28;20056;-69
2023/10/02 12:31:46;;;;;;;14.73;7.70;;;;;;;;;;5021366;28;20544;-69
2023/10/02 12:34:13;;;;;;;14.82;7.75;;;;;;;;;;5024500;28;20083;-69
2023/10/02 12:36:40;;;;;;;12.48;7.35;;;;;;;;;;5023797;28;20050;-68
2023/10/02 12:39:12;;;;;;;14.40;7.82;;;;;;;;;;5024285;28;20140;-68
2023/10/02 12:41:41;;;;;;;14.45;7.85;;;;;;;;;;5015476;28;20057;-67
2023/10/02 12:44:08;;;;;;;12.50;7.53;;;;;;;;;;5021183;28;20062;-67
2023/10/02 12:46:43;;;;;;;15.70;7.93;;;;;;;;;;5021486;28;20050;-68
2023/10/02 12:49:13;;;;;;;14.32;8.40;;;;;;;;;;5023689;28;20533;-68
2023/10/02 12:51:40;;;;;;;15.75;8.60;;;;;;;;;;5023295;28;20049;-68
2023/10/02 12:54:07;;;;;;;12.88;7.63;;;;;;;;;;5024627;28;20054;-69
2023/10/02 12:56:35;;;;;;;14.88;8.07;;;;;;;;;;5018019;28;20050;-69
2023/10/02 12:59:04;;;;;;;14.10;8.48;;;;;;;;;;5025033;28;20046;-70
2023/10/02 13:01:30;;;;;;;12.43;7.25;;;;;;;;;;5023796;28;20179;-68
2023/10/02 13:03:59;;;;;;;16.75;8.57;;;;;;;;;;5024055;28;20050;-69
2023/10/02 13:06:26;;;;;;;17.30;8.40;;;;;;;;;;5023339;28;20112;-68
2023/10/02 13:11:49;;;;;;;54.60;11.30;;;;;;;;;;5013913;28;20485;-68
2023/10/02 13:14:19;;;;;;;20.92;8.13;;;;;;;;;;5007841;28;20105;-67
2023/10/02 13:16:46;;;;;;;13.75;7.68;;;;;;;;;;5019628;28;20161;-67
2023/10/02 13:19:13;;;;;;;14.98;7.82;;;;;;;;;;5023170;28;20513;-69
2023/10/02 13:21:40;;;;;;;19.25;8.55;;;;;;;;;;5023373;28;20501;-68
2023/10/02 13:24:13;;;;;;;14.23;8.05;;;;;;;;;;5023733;28;20056;-69
2023/10/02 13:26:40;;;;;;;13.20;7.13;;;;;;;;;;5023601;28;20142;-68
2023/10/02 13:29:07;;;;;;;14.63;7.53;;;;;;;;;;5023704;28;20057;-68
2023/10/02 13:31:34;;;;;;;13.23;7.38;;;;;;;;;;5022513;28;20108;-67
2023/10/02 13:34:03;;;;;;;12.40;6.95;;;;;;;;;;5023179;28;20053;-67
2023/10/02 13:36:33;;;;;;;15.90;8.48;;;;;;;;;;5023154;28;20056;-67
2023/10/02 13:39:00;;;;;;;13.65;7.95;;;;;;;;;;5023357;28;20169;-68
2023/10/02 13:41:27;;;;;;;13.68;7.43;;;;;;;;;;5023319;28;20054;-67
2023/10/02 13:43:59;;;;;;;13.23;7.35;;;;;;;;;;5014907;28;20540;-67
2023/10/02 13:46:26;;;;;;;14.50;7.53;;;;;;;;;;4995446;28;20410;-70
2023/10/02 13:48:53;;;;;;;14.98;7.60;;;;;;;;;;5022434;28;21029;-68
2023/10/02 13:51:20;;;;;;;16.65;7.03;;;;;;;;;;5019216;28;20136;-68
2023/10/02 13:53:49;;;;;;;13.38;7.40;;;;;;;;;;5021711;28;20050;-68
2023/10/02 13:56:20;;;;;;;14.32;8.60;;;;;;;;;;5022134;28;20116;-69
2023/10/02 13:58:48;;;;;;;16.55;8.60;;;;;;;;;;5021841;28;20057;-68
2023/10/02 14:01:16;;;;;;;14.27;8.07;;;;;;;;;;5006286;28;20050;-68
2023/10/02 14:03:45;;;;;;;16.42;9.02;;;;;;;;;;5022194;28;20405;-68
2023/10/02 14:06:13;;;;;;;18.38;9.65;;;;;;;;;;5018032;28;20057;-67
2023/10/02 14:08:40;;;;;;;16.73;9.07;;;;;;;;;;5022923;28;20054;-66
2023/10/02 14:11:08;;;;;;;15.82;9.18;;;;;;;;;;5022666;28;20066;-67
2023/10/02 14:13:35;;;;;;;16.88;8.98;;;;;;;;;;5009590;28;20055;-69
2023/10/02 14:16:05;;;;;;;15.40;9.27;;;;;;;;;;5004083;28;20520;-69
2023/10/02 14:18:32;;;;;;;17.98;9.68;;;;;;;;;;5014466;28;20053;-68
2023/10/02 14:21:00;;;;;;;16.35;9.35;;;;;;;;;;5003545;28;20049;-69
2023/10/02 14:23:29;;;;;;;16.20;8.65;;;;;;;;;;5002834;28;20054;-69
2023/10/02 14:25:56;;;;;;;15.27;8.68;;;;;;;;;;5020869;28;20104;-69
2023/10/02 14:28:24;;;;;;;18.08;9.40;;;;;;;;;;5021737;28;20113;-68
2023/10/02 14:30:51;;;;;;;15.68;9.70;;;;;;;;;;5023894;28;20144;-68
2023/10/02 14:33:18;;;;;;;19.70;9.02;;;;;;;;;;5006984;28;20058;-68
2023/10/02 14:35:44;;;;;;;16.95;9.00;;;;;;;;;;5027525;28;20139;-68
2023/10/02 14:38:23;;;;;;;20.00;10.48;;;;;;;;;;5028376;28;20543;-69
2023/10/02 14:40:52;;;;;;;19.38;9.20;;;;;;;;;;5027032;28;21022;-68
2023/10/02 14:43:20;;;;;;;21.08;10.90;;;;;;;;;;5008452;28;20533;-68
2023/10/02 14:45:47;;;;;;;16.50;8.52;;;;;;;;;;5025559;28;20116;-69
2023/10/02 14:48:20;;;;;;;17.58;9.45;;;;;;;;;;5026232;28;20141;-68
2023/10/02 14:51:09;;;;;;;15.80;9.25;;;;;;;;;;5026981;28;20060;-68
2023/10/02 14:53:36;;;;;;;16.00;9.02;;;;;;;;;;5008366;28;20054;-69
2023/10/02 14:56:03;;;;;;;18.58;9.48;;;;;;;;;;5008473;28;20054;-67
2023/10/02 14:58:31;;;;;;;13.05;8.05;;;;;;;;;;5024974;28;20062;-67
2023/10/02 15:00:57;;;;;;;15.73;9.30;;;;;;;;;;5025527;28;20112;-70
2023/10/02 15:03:25;;;;;;;17.10;9.30;;;;;;;;;;5025010;28;20500;-70
2023/10/02 15:05:52;;;;;;;11.85;7.72;;;;;;;;;;5026179;28;20057;-68
2023/10/02 15:08:19;;;;;;;16.95;10.07;;;;;;;;;;5007717;28;20089;-67
2023/10/02 15:10:46;;;;;;;15.73;8.90;;;;;;;;;;5025631;28;20057;-67
2023/10/02 15:13:14;;;;;;;20.02;9.82;;;;;;;;;;5024481;28;20433;-68
2023/10/02 15:15:40;;;;;;;15.90;9.60;;;;;;;;;;5024681;28;20108;-67
2023/10/02 15:18:08;;;;;;;15.10;8.13;;;;;;;;;;5025499;28;20061;-67
2023/10/02 15:20:37;;;;;;;17.15;8.90;;;;;;;;;;5025522;28;20050;-68
2023/10/02 15:23:03;;;;;;;14.40;7.70;;;;;;;;;;5007675;28;20054;-67
2023/10/02 15:25:30;;;;;;;16.15;8.77;;;;;;;;;;5024470;28;20053;-67
2023/10/02 15:28:00;;;;;;;18.95;9.23;;;;;;;;;;5025903;28;20424;-67
2023/10/02 15:30:27;;;;;;;17.80;9.80;;;;;;;;;;5024039;28;20056;-67
2023/10/02 15:32:54;;;;;;;22.10;11.00;;;;;;;;;;5025052;28;20054;-66
2023/10/02 15:35:23;;;;;;;18.38;10.63;;;;;;;;;;5021099;28;20141;-67